Time;durP1;ratioP1;P1;durP2;ratioP2;P2;SDS_P1;SDS_P2;PMS_P1;PMS_P2;Temp;Humidity;BMP_temperature;BMP_pressure;BME280_temperature;BME280_humidity;BME280_pressure;Samples;Min_cycle;Max_cycle;Signal;HPM_P1;HPM_P2
2022/06/11 00:01:19;;;;;;;9.48;3.80;;;;;;;16.63;46.70;101508.91;5036830;28;20049;-68
2022/06/11 00:03:48;;;;;;;9.27;3.60;;;;;;;16.64;46.60;101509.75;5036837;28;20049;-68
2022/06/11 00:06:16;;;;;;;12.98;3.83;;;;;;;16.69;47.06;101512.75;5036855;28;20053;-65
2022/06/11 00:08:43;;;;;;;11.25;3.45;;;;;;;16.70;46.74;101510.91;5036841;28;20139;-65
2022/06/11 00:11:11;;;;;;;10.23;3.67;;;;;;;16.67;46.91;101507.50;5036706;28;20136;-66
2022/06/11 00:13:38;;;;;;;10.88;3.20;;;;;;;16.66;47.37;101513.97;5036646;28;20065;-66
2022/06/11 00:16:06;;;;;;;11.38;3.88;;;;;;;16.65;47.25;101509.56;5036285;28;20139;-65
2022/06/11 00:18:34;;;;;;;15.30;4.28;;;;;;;16.62;47.21;101512.66;5036333;28;20140;-65
2022/06/11 00:21:03;;;;;;;10.02;3.92;;;;;;;16.58;47.37;101511.31;5036004;28;20091;-64
2022/06/11 00:23:29;;;;;;;13.00;3.78;;;;;;;16.60;47.38;101519.25;5036299;28;20136;-65
2022/06/11 00:25:56;;;;;;;11.40;4.25;;;;;;;16.57;47.43;101515.03;5036783;28;20405;-65
2022/06/11 00:28:23;;;;;;;15.93;4.18;;;;;;;16.56;47.52;101513.38;5036449;28;20557;-66
2022/06/11 00:30:49;;;;;;;9.25;4.05;;;;;;;16.58;47.67;101521.31;5036059;28;20136;-65
2022/06/11 00:33:16;;;;;;;12.98;3.92;;;;;;;16.60;47.78;101516.56;5036314;28;20477;-65
2022/06/11 00:35:43;;;;;;;9.43;4.05;;;;;;;16.54;47.80;101517.25;5036473;28;20100;-65
2022/06/11 00:38:09;;;;;;;15.40;4.45;;;;;;;16.53;48.26;101513.72;5036323;28;20049;-65
2022/06/11 00:40:39;;;;;;;11.57;3.88;;;;;;;16.49;48.21;101515.06;5036007;28;20096;-64
2022/06/11 00:43:06;;;;;;;13.32;4.18;;;;;;;16.43;47.86;101513.91;5035632;28;20119;-64
2022/06/11 00:45:43;;;;;;;15.32;4.00;;;;;;;16.45;48.15;101507.50;5036542;28;20053;-64
2022/06/11 00:48:17;;;;;;;13.27;3.58;;;;;;;16.42;48.08;101520.38;5035918;28;20057;-64
2022/06/11 00:51:05;;;;;;;9.25;3.60;;;;;;;16.39;48.03;101514.47;5035978;28;20144;-64
2022/06/11 00:53:44;;;;;;;14.00;4.07;;;;;;;16.35;48.27;101513.16;5035567;28;20085;-66
2022/06/11 00:56:16;;;;;;;10.27;3.70;;;;;;;16.32;48.22;101513.50;5036059;28;20046;-65
2022/06/11 00:58:45;;;;;;;10.60;3.45;;;;;;;16.32;48.28;101508.09;5035780;28;20141;-65
2022/06/11 01:01:15;;;;;;;9.32;3.60;;;;;;;16.32;48.04;101505.38;5036009;28;20555;-65
2022/06/11 01:03:45;;;;;;;11.93;3.40;;;;;;;16.31;48.22;101504.53;5035399;28;20053;-65
2022/06/11 01:10:06;;;;;;;9.43;3.35;;;;;;;16.24;48.36;101491.91;5036065;28;20137;-65
2022/06/11 01:12:35;;;;;;;14.88;3.40;;;;;;;16.21;48.82;101497.66;5036093;28;20073;-65
2022/06/11 01:15:14;;;;;;;9.07;3.13;;;;;;;16.18;48.50;101494.28;5037228;28;20103;-64
2022/06/11 01:18:01;;;;;;;8.57;3.30;;;;;;;16.16;48.79;101496.34;5035785;28;20144;-64
2022/06/11 01:20:39;;;;;;;9.98;3.70;;;;;;;16.14;48.57;101492.13;5036697;28;20081;-65
2022/06/11 01:23:31;;;;;;;10.85;3.42;;;;;;;16.13;48.73;101488.56;5035774;28;20482;-64
2022/06/11 01:26:16;;;;;;;7.57;3.25;;;;;;;16.10;48.72;101494.34;5036070;28;20049;-65
2022/06/11 01:29:01;;;;;;;12.07;3.15;;;;;;;16.06;48.70;101486.75;5035640;28;20436;-64
2022/06/11 01:31:41;;;;;;;9.43;3.42;;;;;;;16.04;48.82;101481.50;5035202;28;20072;-64
2022/06/11 01:34:11;;;;;;;9.10;3.05;;;;;;;16.01;48.88;101486.44;5035166;28;20472;-65
2022/06/11 01:36:41;;;;;;;11.60;3.42;;;;;;;16.02;48.74;101482.69;5035296;28;20056;-64
2022/06/11 01:39:21;;;;;;;13.82;2.83;;;;;;;16.03;48.58;101479.00;5036328;28;20104;-64
2022/06/11 01:41:58;;;;;;;13.50;3.13;;;;;;;16.01;48.65;101475.63;5035651;28;20068;-64
2022/06/11 01:44:37;;;;;;;7.93;3.20;;;;;;;15.99;48.95;101473.09;5035260;28;20111;-65
2022/06/11 01:47:05;;;;;;;8.65;2.95;;;;;;;15.98;48.97;101476.81;5035678;28;20092;-64
2022/06/11 01:49:36;;;;;;;7.93;2.60;;;;;;;15.93;48.55;101476.50;5034801;28;20136;-65
2022/06/11 01:52:29;;;;;;;6.68;3.03;;;;;;;15.94;48.64;101475.47;5034977;28;20145;-65
2022/06/11 01:55:08;;;;;;;8.13;2.70;;;;;;;15.94;48.98;101475.47;5034750;28;20140;-64
2022/06/11 01:58:18;;;;;;;7.60;2.92;;;;;;;15.95;49.36;101477.16;5035160;28;20139;-64
2022/06/11 02:00:53;;;;;;;5.55;2.83;;;;;;;15.96;49.40;101478.88;5034839;28;20045;-64
2022/06/11 02:03:20;;;;;;;6.50;2.60;;;;;;;15.94;49.27;101481.72;5034959;28;20041;-64
2022/06/11 02:06:14;;;;;;;7.20;2.88;;;;;;;15.91;49.47;101492.06;5034685;28;20053;-64
2022/06/11 02:09:13;;;;;;;8.07;3.10;;;;;;;15.85;49.65;101482.81;5034234;28;20149;-65
2022/06/11 02:11:44;;;;;;;7.88;3.15;;;;;;;15.80;49.64;101484.34;5034457;28;20041;-64
2022/06/11 02:14:40;;;;;;;7.53;2.92;;;;;;;15.75;49.93;101484.03;5034244;28;20091;-64
2022/06/11 02:17:12;;;;;;;8.65;3.13;;;;;;;15.70;49.87;101487.25;5011264;28;20148;-64
2022/06/11 02:19:48;;;;;;;5.70;2.50;;;;;;;15.66;50.16;101486.75;5033838;28;20087;-64
2022/06/11 02:22:20;;;;;;;9.48;2.97;;;;;;;15.65;50.15;101482.38;5034117;28;20129;-65
2022/06/11 02:24:58;;;;;;;7.95;2.47;;;;;;;15.64;50.41;101486.13;5033969;28;20111;-64
2022/06/11 02:27:28;;;;;;;9.32;2.83;;;;;;;15.61;50.33;101486.44;5033902;28;20140;-64
2022/06/11 02:29:56;;;;;;;10.30;3.13;;;;;;;15.62;50.42;101481.84;5034076;28;20049;-65
2022/06/11 02:32:26;;;;;;;5.22;2.45;;;;;;;15.58;50.56;101489.47;5034015;28;20514;-64
2022/06/11 02:34:57;;;;;;;6.37;2.67;;;;;;;15.58;50.42;101481.38;5034154;28;20498;-64
2022/06/11 02:37:31;;;;;;;9.35;2.50;;;;;;;15.55;50.30;101481.72;5026838;28;20140;-64
2022/06/11 02:40:08;;;;;;;7.53;2.63;;;;;;;15.56;50.30;101486.09;5033674;28;20076;-64
2022/06/11 02:42:35;;;;;;;9.95;3.25;;;;;;;15.58;50.19;101486.78;5033203;28;20064;-64
2022/06/11 02:45:02;;;;;;;8.50;2.67;;;;;;;15.56;50.26;101479.84;5033420;28;20057;-64
2022/06/11 02:47:28;;;;;;;7.55;3.20;;;;;;;15.56;50.37;101479.84;5033658;28;20049;-65
2022/06/11 02:49:55;;;;;;;8.63;2.72;;;;;;;15.53;50.24;101489.16;5033641;28;20450;-65
2022/06/11 02:52:23;;;;;;;9.98;3.00;;;;;;;15.54;50.25;101484.59;5033386;28;20084;-64
2022/06/11 02:54:51;;;;;;;5.63;2.33;;;;;;;15.54;50.29;101484.59;5034468;28;20073;-64
2022/06/11 02:57:22;;;;;;;9.48;3.25;;;;;;;15.54;50.17;101488.16;5034333;28;20144;-64
2022/06/11 02:59:50;;;;;;;5.18;2.67;;;;;;;15.55;50.12;101491.69;5033584;28;20073;-65
2022/06/11 03:02:17;;;;;;;10.32;3.13;;;;;;;15.58;49.87;101496.75;5033442;28;20084;-64
2022/06/11 03:04:44;;;;;;;12.93;4.07;;;;;;;15.59;49.96;101493.88;5033766;28;20084;-64
2022/06/11 03:07:11;;;;;;;19.08;7.75;;;;;;;15.59;50.07;101493.03;5016089;28;20513;-64
2022/06/11 03:09:39;;;;;;;8.77;2.75;;;;;;;15.58;49.92;101500.31;5033812;28;20172;-64
2022/06/11 03:12:08;;;;;;;7.85;2.88;;;;;;;15.59;49.79;101501.13;5033489;28;20077;-64
2022/06/11 03:14:36;;;;;;;8.88;2.28;;;;;;;15.62;49.74;101501.63;5034003;28;20077;-64
2022/06/11 03:17:03;;;;;;;7.95;2.42;;;;;;;15.62;49.74;101503.50;5033992;28;20132;-64
2022/06/11 03:19:29;;;;;;;8.80;2.67;;;;;;;15.68;49.47;101508.25;5033575;28;20084;-64
2022/06/11 03:21:56;;;;;;;9.50;2.70;;;;;;;15.65;49.39;101498.63;5033739;28;20072;-64
2022/06/11 03:24:25;;;;;;;4.45;2.28;;;;;;;15.66;49.47;101497.59;5034259;28;20149;-65
2022/06/11 03:26:52;;;;;;;10.80;3.20;;;;;;;15.65;49.40;101501.31;5033868;28;20618;-66
2022/06/11 03:29:22;;;;;;;7.93;2.75;;;;;;;15.64;49.45;101512.28;5033805;28;20049;-65
2022/06/11 03:31:50;;;;;;;9.45;2.70;;;;;;;15.65;49.44;101509.44;5033957;28;20132;-65
2022/06/11 03:34:17;;;;;;;9.52;2.45;;;;;;;15.70;49.47;101507.03;5034060;28;20398;-65
2022/06/11 03:36:45;;;;;;;17.33;2.70;;;;;;;15.68;49.46;101506.38;5034014;28;20115;-65
2022/06/11 03:39:15;;;;;;;9.25;2.58;;;;;;;15.71;49.21;101507.91;5033840;28;20128;-65
2022/06/11 03:41:43;;;;;;;9.20;2.70;;;;;;;15.71;49.32;101510.59;5033235;28;20099;-65
2022/06/11 03:44:09;;;;;;;6.45;2.33;;;;;;;15.73;49.54;101511.25;5033112;28;20100;-65
2022/06/11 03:46:36;;;;;;;8.95;2.75;;;;;;;15.70;49.53;101504.31;5033564;28;20056;-65
2022/06/11 03:49:03;;;;;;;9.80;2.53;;;;;;;15.72;49.62;101515.00;5033470;28;20092;-65
2022/06/11 03:51:30;;;;;;;8.15;2.80;;;;;;;15.71;49.88;101503.34;5034148;28;20058;-65
2022/06/11 03:53:57;;;;;;;14.38;2.80;;;;;;;15.70;49.62;101512.44;5033904;28;20133;-65
2022/06/11 03:56:25;;;;;;;8.57;2.65;;;;;;;15.72;49.88;101506.88;5033814;28;20535;-64
2022/06/11 03:58:53;;;;;;;7.75;2.33;;;;;;;15.75;49.82;101513.81;5035192;28;20088;-64
2022/06/11 04:01:20;;;;;;;7.28;2.70;;;;;;;15.71;50.04;101513.31;5037352;28;20506;-65
2022/06/11 04:03:50;;;;;;;6.93;2.53;;;;;;;15.76;49.85;101512.78;5037402;28;20474;-65
2022/06/11 04:06:21;;;;;;;7.75;2.85;;;;;;;15.76;49.79;101520.91;5037485;28;20473;-66
2022/06/11 04:08:48;;;;;;;9.20;3.08;;;;;;;15.78;49.86;101518.84;5036686;28;20053;-64
2022/06/11 04:11:15;;;;;;;9.80;3.30;;;;;;;15.77;49.75;101517.16;5037170;28;20136;-64
2022/06/11 04:13:43;;;;;;;9.65;3.00;;;;;;;15.72;49.77;101515.00;5036254;28;20085;-64
2022/06/11 04:16:25;;;;;;;6.28;2.53;;;;;;;15.81;49.79;101518.50;5036448;28;20081;-64
2022/06/11 04:18:52;;;;;;;8.43;3.10;;;;;;;15.85;49.41;101523.41;5036273;28;20045;-64
2022/06/11 04:21:21;;;;;;;7.38;2.78;;;;;;;15.82;49.73;101521.03;5036546;28;20080;-64
2022/06/11 04:23:49;;;;;;;9.88;2.83;;;;;;;15.88;49.57;101519.47;5035853;28;20045;-64
2022/06/11 04:26:22;;;;;;;10.60;2.80;;;;;;;15.84;49.67;101524.41;5035897;28;20049;-64
2022/06/11 04:28:49;;;;;;;12.90;3.10;;;;;;;15.83;49.73;101519.16;5036222;28;20525;-64
2022/06/11 04:31:16;;;;;;;5.20;2.35;;;;;;;15.91;49.67;101522.66;5035912;28;20100;-64
2022/06/11 04:33:44;;;;;;;8.63;2.80;;;;;;;15.92;49.55;101526.25;5036170;28;20457;-64
2022/06/11 04:36:11;;;;;;;11.32;2.80;;;;;;;15.92;49.59;101527.09;5035768;28;20084;-64
2022/06/11 04:38:39;;;;;;;9.20;2.80;;;;;;;16.02;49.35;101529.59;5036087;28;20532;-64
2022/06/11 04:41:07;;;;;;;9.07;2.22;;;;;;;16.09;49.20;101526.97;5036232;28;20526;-65
2022/06/11 04:43:35;;;;;;;8.32;2.80;;;;;;;16.07;49.54;101519.06;5035598;28;20394;-64
2022/06/11 04:46:03;;;;;;;9.90;2.75;;;;;;;16.14;49.19;101528.16;5035645;28;20050;-64
2022/06/11 04:48:30;;;;;;;9.73;2.00;;;;;;;16.12;49.25;101524.75;5035825;28;20540;-64
2022/06/11 04:50:57;;;;;;;10.45;2.72;;;;;;;16.17;49.43;101525.09;5035574;28;20089;-64
2022/06/11 04:53:24;;;;;;;6.00;2.47;;;;;;;16.15;48.94;101521.72;5035706;28;20055;-65
2022/06/11 04:55:51;;;;;;;8.77;3.55;;;;;;;16.21;49.03;101530.16;5035860;28;20505;-64
2022/06/11 04:58:18;;;;;;;9.77;3.15;;;;;;;16.20;49.16;101526.59;5035578;28;20079;-63
2022/06/11 05:00:45;;;;;;;6.82;2.45;;;;;;;16.26;49.26;101528.59;5035574;28;20141;-65
2022/06/11 05:03:12;;;;;;;8.38;3.13;;;;;;;16.19;49.33;101522.19;5035093;28;20045;-65
2022/06/11 05:05:40;;;;;;;9.05;3.40;;;;;;;16.20;49.52;101515.78;5035475;28;20478;-63
2022/06/11 05:08:07;;;;;;;12.02;2.65;;;;;;;16.21;49.44;101524.75;5035852;28;20454;-65
2022/06/11 05:10:34;;;;;;;5.85;2.60;;;;;;;16.13;49.80;101531.88;5034375;28;20085;-64
2022/06/11 05:13:05;;;;;;;7.00;2.42;;;;;;;16.18;49.10;101525.94;5036379;28;20417;-65
2022/06/11 05:15:34;;;;;;;16.67;5.65;;;;;;;16.25;49.33;101531.47;5035349;28;20549;-65
2022/06/11 05:18:01;;;;;;;16.38;7.72;;;;;;;16.32;49.44;101535.16;5035332;28;20416;-66
2022/06/11 05:20:27;;;;;;;6.13;2.28;;;;;;;16.39;49.28;101528.00;5035407;28;20172;-64
2022/06/11 05:22:54;;;;;;;10.07;2.92;;;;;;;16.36;49.52;101537.31;5035317;28;20423;-65
2022/06/11 05:25:21;;;;;;;9.35;2.50;;;;;;;16.45;49.10;101537.28;5027059;28;20085;-64
2022/06/11 05:27:48;;;;;;;7.57;2.47;;;;;;;16.49;49.34;101539.44;5035232;28;20145;-64
2022/06/11 05:30:25;;;;;;;7.25;2.42;;;;;;;16.60;49.06;101551.75;5035224;28;20465;-65
2022/06/11 05:32:53;;;;;;;7.53;2.17;;;;;;;16.59;49.04;101541.97;5035250;28;20099;-65
2022/06/11 05:35:22;;;;;;;9.90;2.55;;;;;;;16.75;48.64;101549.13;5035166;28;20049;-65
2022/06/11 05:37:51;;;;;;;8.63;2.67;;;;;;;16.80;48.55;101549.44;5035157;28;20084;-65
2022/06/11 05:40:24;;;;;;;13.50;2.72;;;;;;;16.89;48.57;101551.91;5034740;28;20049;-64
2022/06/11 05:42:51;;;;;;;8.07;2.40;;;;;;;16.96;48.29;101552.00;5034802;28;20562;-64
2022/06/11 05:45:35;;;;;;;9.32;2.28;;;;;;;17.06;47.80;101549.03;5034639;28;20056;-64
2022/06/11 05:48:05;;;;;;;5.13;2.28;;;;;;;17.06;48.01;101549.91;5035002;28;20103;-63
2022/06/11 05:50:36;;;;;;;5.28;2.42;;;;;;;17.16;47.88;101551.50;5034661;28;20136;-63
2022/06/11 05:53:03;;;;;;;9.07;2.50;;;;;;;17.29;47.56;101557.13;5034674;28;20132;-64
2022/06/11 05:55:34;;;;;;;7.18;2.25;;;;;;;17.33;47.48;101547.59;5034643;28;20052;-64
2022/06/11 05:58:05;;;;;;;8.50;2.67;;;;;;;17.32;47.63;101546.75;5034754;28;20081;-64
2022/06/11 06:00:34;;;;;;;8.13;2.30;;;;;;;17.44;47.17;101549.91;5034926;28;20067;-64
2022/06/11 06:03:00;;;;;;;9.18;2.75;;;;;;;17.50;47.37;101548.31;5034569;28;20081;-64
2022/06/11 06:05:29;;;;;;;9.60;2.38;;;;;;;17.44;47.12;101546.31;5034310;28;20050;-64
2022/06/11 06:07:56;;;;;;;7.57;2.13;;;;;;;17.54;47.01;101552.31;5034188;28;20050;-63
2022/06/11 06:10:23;;;;;;;7.45;2.13;;;;;;;17.59;47.34;101542.59;5034724;28;20237;-63
2022/06/11 06:12:51;;;;;;;9.98;2.50;;;;;;;17.67;47.22;101547.09;5034555;28;20049;-65
2022/06/11 06:15:20;;;;;;;7.80;2.38;;;;;;;17.70;47.16;101544.00;5033997;28;20140;-66
2022/06/11 06:17:51;;;;;;;8.80;2.80;;;;;;;17.65;47.27;101551.00;5034268;28;20049;-63
2022/06/11 06:20:20;;;;;;;7.50;2.35;;;;;;;17.66;47.02;101541.88;5034449;28;20057;-65
2022/06/11 06:22:47;;;;;;;6.38;2.25;;;;;;;17.72;47.01;101543.84;5033976;28;20125;-64
2022/06/11 06:25:17;;;;;;;11.55;2.63;;;;;;;17.70;46.72;101540.47;5034538;28;20080;-65
2022/06/11 06:27:44;;;;;;;6.88;2.60;;;;;;;17.82;46.69;101542.53;5034660;28;20409;-65
2022/06/11 06:30:16;;;;;;;12.15;2.42;;;;;;;17.85;46.17;101535.84;5034337;28;20049;-65
2022/06/11 06:32:43;;;;;;;10.20;2.10;;;;;;;17.87;46.17;101541.94;5033976;28;20087;-64
2022/06/11 06:35:09;;;;;;;17.88;2.47;;;;;;;17.87;45.98;101547.38;5034170;28;20050;-64
2022/06/11 06:37:36;;;;;;;6.00;1.80;;;;;;;17.94;46.36;101551.00;5034109;28;20084;-64
2022/06/11 06:40:03;;;;;;;5.93;1.75;;;;;;;18.02;46.04;101545.47;5033949;28;20085;-64
2022/06/11 06:42:30;;;;;;;15.25;2.20;;;;;;;18.21;45.55;101548.69;5033916;28;20046;-64
2022/06/11 06:44:58;;;;;;;10.77;2.30;;;;;;;18.26;45.55;101549.75;5014116;28;20161;-64
2022/06/11 06:47:24;;;;;;;7.68;2.42;;;;;;;18.28;45.44;101552.31;5014113;28;20140;-64
2022/06/11 06:49:51;;;;;;;7.13;2.45;;;;;;;18.17;45.12;101555.50;5013847;28;20163;-64
2022/06/11 06:52:17;;;;;;;4.53;1.90;;;;;;;18.37;45.27;101542.16;5014259;28;20050;-65
2022/06/11 06:54:44;;;;;;;5.72;2.38;;;;;;;18.55;44.56;101551.56;5014599;28;20053;-65
2022/06/11 06:57:10;;;;;;;12.73;2.25;;;;;;;18.57;45.17;101550.53;5013962;28;20096;-65
2022/06/11 06:59:37;;;;;;;9.98;1.60;;;;;;;18.59;45.16;101546.59;5014122;28;20144;-65
2022/06/11 07:02:04;;;;;;;8.65;2.20;;;;;;;18.41;44.93;101547.03;5013561;28;20053;-65
2022/06/11 07:04:31;;;;;;;9.65;2.25;;;;;;;18.73;44.56;101545.69;5013863;28;20132;-65
2022/06/11 07:06:57;;;;;;;11.20;2.17;;;;;;;18.73;44.65;101556.56;5014208;28;20046;-65
2022/06/11 07:09:24;;;;;;;11.35;2.60;;;;;;;18.79;44.47;101544.03;5014143;28;20064;-65
2022/06/11 07:11:51;;;;;;;10.13;2.38;;;;;;;18.87;44.59;101551.25;4996717;28;20085;-65
2022/06/11 07:14:17;;;;;;;7.53;1.83;;;;;;;18.88;44.77;101542.88;5014754;28;20054;-65
2022/06/11 07:16:49;;;;;;;10.02;2.35;;;;;;;19.07;44.35;101535.13;5013959;28;20245;-66
2022/06/11 07:19:22;;;;;;;8.27;1.92;;;;;;;19.14;44.20;101538.72;5013734;28;20092;-66
2022/06/11 07:21:54;;;;;;;7.65;2.03;;;;;;;19.15;44.16;101537.72;5013403;28;20085;-64
2022/06/11 07:24:25;;;;;;;6.47;2.08;;;;;;;19.26;43.71;101535.28;5013860;28;20487;-64
2022/06/11 07:26:58;;;;;;;4.80;1.92;;;;;;;19.37;43.27;101536.59;5013953;28;20056;-65
2022/06/11 07:29:30;;;;;;;6.57;1.85;;;;;;;19.48;43.24;101533.34;5013487;28;20046;-65
2022/06/11 07:32:01;;;;;;;;;;;;;;;19.72;42.78;101537.47;5014310;28;20137;-65
2022/06/11 07:34:28;;;;;;;7.72;2.17;;;;;;;19.71;42.88;101532.25;5016637;28;20016;-65
2022/06/11 07:36:57;;;;;;;7.20;2.10;;;;;;;19.86;42.52;101530.22;5017603;28;20089;-65
2022/06/11 07:39:25;;;;;;;6.93;2.22;;;;;;;20.28;41.72;101541.94;5017822;28;20227;-65
2022/06/11 07:41:51;;;;;;;10.65;2.13;;;;;;;20.29;41.56;101537.31;5017286;28;20100;-64
2022/06/11 07:44:18;;;;;;;6.63;1.55;;;;;;;20.65;40.97;101528.81;5031949;28;20085;-65
2022/06/11 07:46:44;;;;;;;8.68;1.98;;;;;;;21.12;39.85;101536.00;5037244;28;20053;-65
2022/06/11 07:49:13;;;;;;;10.10;2.10;;;;;;;20.99;39.94;101529.69;5037031;28;20049;-65
2022/06/11 07:51:39;;;;;;;5.95;1.70;;;;;;;21.01;40.12;101533.03;5037160;28;20049;-64
2022/06/11 07:54:06;;;;;;;11.70;1.73;;;;;;;21.20;39.65;101534.13;5038486;28;20072;-65
2022/06/11 07:56:32;;;;;;;3.10;1.58;;;;;;;21.75;37.99;101534.63;5039310;28;20127;-65
2022/06/11 07:58:59;;;;;;;6.75;1.92;;;;;;;21.64;37.07;101541.59;5037993;28;20089;-65
2022/06/11 08:01:25;;;;;;;7.75;1.73;;;;;;;21.65;37.49;101532.34;5038711;28;20133;-65
2022/06/11 08:03:52;;;;;;;11.60;2.00;;;;;;;21.19;38.72;101525.09;5037339;28;20042;-65
2022/06/11 08:06:19;;;;;;;6.03;1.90;;;;;;;21.30;37.55;101538.09;5037482;28;20050;-65
2022/06/11 08:08:46;;;;;;;10.15;2.10;;;;;;;21.65;37.48;101532.34;5036979;28;20132;-65
2022/06/11 08:11:12;;;;;;;9.45;2.10;;;;;;;21.88;36.84;101533.78;5036814;28;20076;-66
2022/06/11 08:13:39;;;;;;;10.00;2.10;;;;;;;21.96;36.93;101536.28;5036433;28;20084;-65
2022/06/11 08:16:06;;;;;;;6.05;2.25;;;;;;;21.91;37.06;101538.81;5036556;28;20140;-65
2022/06/11 08:18:33;;;;;;;7.63;2.05;;;;;;;22.08;35.54;101534.53;5036058;28;20053;-65
2022/06/11 08:21:00;;;;;;;5.05;1.70;;;;;;;22.46;34.40;101526.31;5036546;28;20095;-65
2022/06/11 08:23:27;;;;;;;6.95;1.80;;;;;;;21.79;36.62;101531.28;5018846;28;20445;-64
2022/06/11 08:25:53;;;;;;;8.15;1.83;;;;;;;21.81;37.24;101522.91;5036088;28;20095;-65
2022/06/11 08:28:20;;;;;;;9.20;1.92;;;;;;;22.00;35.28;101527.41;5019646;28;20088;-65
2022/06/11 08:31:20;;;;;;;11.05;2.17;;;;;;;22.19;36.11;101527.56;5037728;28;20049;-66
2022/06/11 08:33:53;;;;;;;10.43;2.28;;;;;;;22.59;34.87;101528.19;5035799;28;20053;-67
2022/06/11 08:36:19;;;;;;;6.95;1.80;;;;;;;23.34;33.32;101524.66;5036397;28;20050;-68
2022/06/11 08:38:46;;;;;;;10.95;2.00;;;;;;;23.62;32.33;101530.44;5036528;28;20140;-68
2022/06/11 08:41:17;;;;;;;8.32;2.00;;;;;;;23.70;32.78;101527.41;5036701;28;20466;-68
2022/06/11 08:43:55;;;;;;;12.52;2.05;;;;;;;23.99;31.62;101525.00;5035911;28;20515;-68
2022/06/11 08:46:26;;;;;;;10.35;1.50;;;;;;;24.10;31.12;101526.13;5036665;28;20061;-68
2022/06/11 08:49:05;;;;;;;9.00;1.93;;;;;;;22.97;33.47;101516.31;5035897;28;20049;-68
2022/06/11 08:51:53;;;;;;;7.63;2.00;;;;;;;23.32;32.40;101513.91;5036186;28;20412;-68
2022/06/11 08:54:25;;;;;;;4.72;1.52;;;;;;;23.17;32.74;101518.91;5035788;28;20077;-68
2022/06/11 08:57:10;;;;;;;9.60;1.80;;;;;;;22.68;34.62;101518.66;5036015;28;20486;-67
2022/06/11 09:00:05;;;;;;;6.82;1.70;;;;;;;22.76;33.94;101507.44;5035960;28;20140;-69
2022/06/11 09:02:55;;;;;;;5.43;1.60;;;;;;;23.32;32.79;101513.91;5036781;28;20050;-68
2022/06/11 09:05:24;;;;;;;5.90;1.55;;;;;;;23.32;32.73;101513.91;5035407;28;20514;-68
2022/06/11 09:07:57;;;;;;;6.50;1.80;;;;;;;22.47;34.99;101505.34;5036231;28;20084;-68
2022/06/11 09:10:46;;;;;;;7.90;1.73;;;;;;;21.92;35.82;101510.44;5035684;28;20140;-68
2022/06/11 09:13:31;;;;;;;11.60;1.77;;;;;;;22.13;34.47;101507.41;5035535;28;20076;-69
2022/06/11 09:16:16;;;;;;;4.95;1.30;;;;;;;22.07;35.30;101500.91;5036333;28;20460;-68
2022/06/11 09:19:06;;;;;;;9.45;1.92;;;;;;;22.25;35.21;101510.28;5035329;28;20485;-68
2022/06/11 09:21:51;;;;;;;5.18;1.60;;;;;;;22.54;33.50;101515.19;5029108;28;20107;-68
2022/06/11 09:24:30;;;;;;;4.15;1.70;;;;;;;22.75;33.49;101503.03;5035263;28;20497;-68
2022/06/11 09:27:35;;;;;;;6.78;1.75;;;;;;;22.36;35.18;101497.78;5035012;28;20053;-68
2022/06/11 09:30:16;;;;;;;7.13;2.03;;;;;;;22.99;33.99;101500.53;5033273;28;20077;-68
2022/06/11 09:32:48;;;;;;;;;;;;;;;23.62;32.63;101502.22;5035307;28;20081;-68
2022/06/11 09:35:29;;;;;;;4.72;1.40;;;;;;;23.76;32.12;101505.69;5035108;28;19924;-68
2022/06/11 09:38:20;;;;;;;6.67;1.60;;;;;;;23.52;33.22;101508.22;5034982;28;20139;-68
2022/06/11 09:41:05;;;;;;;4.63;2.72;;;;;;;23.92;32.54;101502.31;5035197;28;20099;-69
2022/06/11 09:43:45;;;;;;;3.38;1.55;;;;;;;23.87;32.49;101491.19;5034384;28;20103;-68
2022/06/11 09:46:34;;;;;;;5.53;1.52;;;;;;;23.80;33.04;101482.22;5034965;28;20053;-68
2022/06/11 09:49:43;;;;;;;4.38;1.35;;;;;;;24.39;31.07;101486.06;5034609;28;20056;-69
2022/06/11 09:52:24;;;;;;;4.95;1.60;;;;;;;24.97;31.41;101490.00;5034936;28;20124;-69
2022/06/11 09:54:50;;;;;;;4.57;1.42;;;;;;;25.16;30.54;101488.81;5034907;28;20455;-69
2022/06/11 09:57:23;;;;;;;4.95;1.50;;;;;;;25.32;30.10;101492.75;5034473;28;20406;-69
2022/06/11 09:59:56;;;;;;;7.93;1.58;;;;;;;25.67;29.74;101500.13;5035694;28;20560;-69
2022/06/11 10:05:05;;;;;;;4.55;1.23;;;;;;;25.06;29.43;101491.31;5035376;28;20128;-69
2022/06/11 10:07:39;;;;;;;8.48;1.83;;;;;;;23.86;32.49;101481.31;5036126;28;20119;-68
2022/06/11 10:10:40;;;;;;;5.20;1.17;;;;;;;23.44;33.07;101483.91;5034333;28;20057;-69
2022/06/11 10:13:19;;;;;;;3.73;1.27;;;;;;;23.27;32.23;101489.13;4991686;28;20136;-69
2022/06/11 10:15:47;;;;;;;7.32;1.73;;;;;;;23.58;31.41;101481.84;5034701;28;20418;-68
2022/06/11 10:18:32;;;;;;;7.15;1.73;;;;;;;23.47;31.00;101488.91;5035198;28;20379;-69
2022/06/11 10:21:09;;;;;;;7.65;1.40;;;;;;;23.26;32.52;101476.47;5035291;28;20133;-68
2022/06/11 10:24:03;;;;;;;7.28;1.20;;;;;;;22.91;33.82;101490.69;5034276;28;20107;-67
2022/06/11 10:26:35;;;;;;;4.10;1.63;;;;;;;23.10;33.30;101483.34;5034713;28;20056;-68
2022/06/11 10:29:08;;;;;;;4.50;1.10;;;;;;;23.91;29.84;101485.00;5034833;28;20453;-69
2022/06/11 10:31:48;;;;;;;6.57;1.35;;;;;;;24.47;28.95;101484.91;5034520;28;20483;-68
2022/06/11 10:34:21;;;;;;;5.70;1.42;;;;;;;24.06;30.09;101481.88;5034611;28;20099;-69
2022/06/11 10:37:21;;;;;;;5.43;1.20;;;;;;;23.57;32.24;101480.97;5034607;28;20083;-68
2022/06/11 10:40:18;;;;;;;2.83;1.10;;;;;;;22.81;33.12;101490.38;5034508;28;20050;-69
2022/06/11 10:42:54;;;;;;;2.03;0.93;;;;;;;24.07;29.54;101478.06;5034928;28;20050;-68
2022/06/11 10:45:20;;;;;;;3.83;1.15;;;;;;;23.69;31.00;101475.59;5034056;28;20136;-68
2022/06/11 10:47:50;;;;;;;10.23;1.35;;;;;;;23.07;32.74;101459.19;5034656;28;20081;-68
2022/06/11 10:50:28;;;;;;;6.20;1.02;;;;;;;22.45;34.10;101474.63;5034446;28;20132;-68
2022/06/11 10:53:30;;;;;;;7.35;1.48;;;;;;;22.24;34.12;101473.06;5033961;28;20438;-67
2022/06/11 10:56:16;;;;;;;8.68;1.45;;;;;;;21.88;34.91;101465.50;5025411;28;20077;-68
2022/06/11 10:59:23;;;;;;;3.95;1.23;;;;;;;21.83;35.27;101472.44;5033791;28;20073;-68
2022/06/11 11:01:58;;;;;;;4.22;1.35;;;;;;;21.92;35.27;101464.84;5033874;28;20457;-67
2022/06/11 11:04:53;;;;;;;3.42;1.30;;;;;;;21.69;35.72;101473.53;5033986;28;20046;-68
2022/06/11 11:07:20;;;;;;;5.70;1.45;;;;;;;21.91;34.89;101474.09;5033343;28;20053;-68
2022/06/11 11:09:47;;;;;;;2.80;0.95;;;;;;;21.91;35.06;101465.91;5033380;28;20140;-68
2022/06/11 11:12:29;;;;;;;2.80;1.27;;;;;;;22.00;34.84;101466.47;5033792;28;20482;-68
2022/06/11 11:15:02;;;;;;;3.88;0.88;;;;;;;22.28;34.52;101458.72;5033894;28;20520;-68
2022/06/11 11:17:32;;;;;;;7.15;1.33;;;;;;;22.01;35.40;101466.28;5033349;28;20112;-68
2022/06/11 11:20:30;;;;;;;6.82;1.20;;;;;;;22.30;34.66;101456.63;5033838;28;20084;-68
2022/06/11 11:23:06;;;;;;;5.43;1.20;;;;;;;22.59;34.09;101461.72;5033260;28;20092;-68
2022/06/11 11:25:39;;;;;;;7.25;1.40;;;;;;;22.82;33.59;101461.94;5033760;28;20046;-68
2022/06/11 11:28:14;;;;;;;3.08;1.20;;;;;;;22.83;33.97;101460.88;5033748;28;20213;-68
2022/06/11 11:30:43;;;;;;;7.03;1.33;;;;;;;23.87;30.77;101455.56;5033588;28;20145;-68
2022/06/11 11:33:33;;;;;;;7.68;1.40;;;;;;;23.58;32.06;101446.22;5033567;28;20045;-68
2022/06/11 11:36:10;;;;;;;4.45;1.52;;;;;;;23.72;30.80;101447.75;5033601;28;20045;-68
2022/06/11 11:38:37;;;;;;;2.80;1.45;;;;;;;24.00;29.93;101454.56;5015588;28;20080;-67
2022/06/11 11:41:05;;;;;;;5.35;1.25;;;;;;;23.13;32.37;101454.75;5033336;28;20053;-68
2022/06/11 11:43:34;;;;;;;9.82;1.63;;;;;;;23.18;31.46;101452.97;5033520;28;20140;-68
2022/06/11 11:46:06;;;;;;;5.18;1.23;;;;;;;23.62;30.60;101433.75;5033943;28;20382;-68
2022/06/11 11:48:42;;;;;;;3.60;1.00;;;;;;;23.67;31.17;101439.34;5033088;28;20045;-68
2022/06/11 11:51:31;;;;;;;3.80;1.63;;;;;;;23.93;30.15;101441.78;5033491;28;20469;-68
2022/06/11 11:54:00;;;;;;;3.25;1.17;;;;;;;23.68;31.24;101438.31;5025832;28;20478;-68
2022/06/11 11:56:31;;;;;;;2.33;1.10;;;;;;;22.61;33.47;101429.53;5034224;28;20084;-69